createdAt,value
2022-12-03T00:00:41.810Z,28.70
2022-12-03T00:02:55.754Z,30.70
2022-12-03T00:04:58.686Z,27.10
2022-12-03T00:07:01.542Z,26.00
2022-12-03T00:09:05.176Z,30.80
2022-12-03T00:11:07.978Z,29.40
2022-12-03T00:13:10.828Z,28.90
2022-12-03T00:15:13.669Z,25.90
2022-12-03T00:17:16.502Z,28.60
2022-12-03T00:19:19.322Z,27.90
2022-12-03T00:21:24.465Z,27.40
2022-12-03T00:23:27.834Z,27.20
2022-12-03T00:25:30.714Z,28.60
2022-12-03T00:27:33.552Z,30.70
2022-12-03T00:29:36.360Z,29.00
2022-12-03T00:31:43.471Z,27.30
2022-12-03T00:33:46.295Z,27.30
2022-12-03T00:35:49.307Z,27.30
2022-12-03T00:37:52.165Z,27.80
2022-12-03T00:39:56.921Z,27.30
2022-12-03T00:41:59.800Z,27.70
2022-12-03T00:44:05.415Z,30.40
2022-12-03T00:46:08.236Z,29.20
2022-12-03T00:48:11.038Z,29.70
2022-12-03T00:50:16.856Z,30.20
2022-12-03T00:52:20.060Z,29.30
2022-12-03T00:54:26.962Z,29.70
2022-12-03T00:56:32.970Z,27.40
2022-12-03T00:58:36.116Z,26.80
2022-12-03T01:00:38.928Z,28.20
2022-12-03T01:02:41.883Z,29.30
2022-12-03T01:04:44.824Z,28.20
2022-12-03T01:06:47.695Z,27.30
2022-12-03T01:08:50.536Z,30.30
2022-12-03T01:10:53.293Z,25.70
2022-12-03T01:12:56.055Z,26.70
2022-12-03T01:14:58.837Z,26.10
2022-12-03T01:17:01.581Z,24.30
2022-12-03T01:19:06.044Z,27.20
2022-12-03T01:21:09.007Z,26.20
2022-12-03T01:23:12.166Z,28.50
2022-12-03T01:25:15.195Z,26.80
2022-12-03T01:27:18.013Z,26.50
2022-12-03T01:29:20.826Z,27.90
2022-12-03T01:31:42.703Z,28.50
2022-12-03T01:33:45.589Z,26.30
2022-12-03T01:35:48.415Z,28.10
2022-12-03T01:37:51.173Z,26.30
2022-12-03T01:39:54.194Z,26.90
2022-12-03T01:41:58.901Z,27.20
2022-12-03T01:44:04.036Z,26.00
2022-12-03T01:46:07.128Z,27.60
2022-12-03T01:48:16.818Z,25.80
2022-12-03T01:50:32.055Z,26.80
2022-12-03T01:52:37.415Z,26.80
2022-12-03T01:54:50.802Z,26.80
2022-12-03T01:56:55.197Z,27.60
2022-12-03T01:58:58.082Z,28.90
2022-12-03T02:01:10.539Z,26.50
2022-12-03T02:03:24.063Z,26.40
2022-12-03T02:05:30.753Z,28.70
2022-12-03T02:07:34.311Z,27.80
2022-12-03T02:09:37.131Z,26.90
2022-12-03T02:11:44.624Z,28.60
2022-12-03T02:13:51.695Z,29.80
2022-12-03T02:15:54.729Z,28.60
2022-12-03T02:17:57.896Z,29.20
2022-12-03T02:20:01.859Z,28.40
2022-12-03T02:22:10.229Z,20.30
2022-12-03T02:24:38.907Z,30.40
2022-12-03T02:26:41.939Z,26.90
2022-12-03T02:28:44.740Z,29.40
2022-12-03T02:30:47.652Z,24.50
2022-12-03T02:32:52.111Z,26.50
2022-12-03T02:34:55.073Z,28.70
2022-12-03T02:36:58.222Z,28.30
2022-12-03T02:39:01.997Z,29.40
2022-12-03T02:41:09.512Z,26.60
2022-12-03T02:43:16.854Z,29.30
2022-12-03T02:45:30.987Z,27.10
2022-12-03T02:47:42.639Z,26.30
2022-12-03T02:49:45.599Z,29.00
2022-12-03T02:51:48.456Z,26.80
2022-12-03T02:53:53.525Z,27.70
2022-12-03T02:55:58.808Z,29.00
2022-12-03T02:58:03.273Z,27.80
2022-12-03T03:00:09.148Z,27.60
2022-12-03T03:02:14.646Z,28.90
2022-12-03T03:04:17.667Z,27.70
2022-12-03T03:06:21.405Z,28.00
2022-12-03T03:08:25.608Z,27.20
2022-12-03T03:10:30.715Z,26.80
2022-12-03T03:12:39.062Z,26.10
2022-12-03T03:14:42.528Z,25.20
2022-12-03T03:16:45.462Z,27.60
2022-12-03T03:18:49.027Z,26.60
2022-12-03T03:20:51.791Z,27.80
2022-12-03T03:22:54.829Z,26.60
2022-12-03T03:24:57.628Z,27.10
2022-12-03T03:27:00.486Z,26.50
2022-12-03T03:29:03.408Z,25.70
2022-12-03T03:31:08.708Z,28.00
2022-12-03T03:33:13.437Z,29.40
2022-12-03T03:35:18.033Z,27.20
2022-12-03T03:37:21.199Z,23.90
2022-12-03T03:39:24.311Z,24.80
2022-12-03T03:41:28.376Z,26.50
2022-12-03T03:43:34.976Z,26.10
2022-12-03T03:45:37.861Z,27.10
2022-12-03T03:47:41.689Z,26.70
2022-12-03T03:49:44.746Z,26.70
2022-12-03T03:51:47.920Z,26.90
2022-12-03T03:53:52.134Z,25.50
2022-12-03T03:55:55.072Z,27.90
2022-12-03T03:57:58.472Z,29.40
2022-12-03T04:00:01.376Z,28.00
2022-12-03T04:02:04.185Z,26.50
2022-12-03T04:04:20.806Z,26.00
2022-12-03T04:06:23.686Z,25.70
2022-12-03T04:08:26.673Z,27.00
2022-12-03T04:10:48.322Z,26.10
2022-12-03T04:12:56.901Z,27.40
2022-12-03T04:14:59.996Z,26.70
2022-12-03T04:17:02.984Z,26.20
2022-12-03T04:19:05.783Z,27.20
2022-12-03T04:21:28.928Z,26.30
2022-12-03T04:23:31.776Z,27.90
2022-12-03T04:25:53.406Z,28.00
2022-12-03T04:28:14.945Z,25.90
2022-12-03T04:30:17.794Z,26.50
2022-12-03T04:32:39.460Z,25.70
2022-12-03T04:35:01.177Z,29.10
2022-12-03T04:37:04.712Z,17.70
2022-12-03T04:39:07.589Z,27.20
2022-12-03T04:41:10.348Z,29.00
2022-12-03T04:43:13.212Z,26.90
2022-12-03T04:45:16.143Z,14.50
2022-12-03T04:47:20.658Z,28.20
2022-12-03T04:49:23.838Z,28.40
2022-12-03T04:51:26.575Z,29.60
2022-12-03T04:53:29.352Z,28.70
2022-12-03T04:55:32.113Z,34.00
2022-12-03T04:57:34.922Z,24.30
2022-12-03T04:59:38.082Z,23.40
2022-12-03T05:01:41.161Z,26.90
2022-12-03T05:03:43.992Z,34.70
2022-12-03T05:05:46.821Z,39.40
2022-12-03T05:07:49.825Z,29.80
2022-12-03T05:09:52.651Z,28.60
2022-12-03T05:11:55.435Z,29.90
2022-12-03T05:13:58.294Z,29.40
2022-12-03T05:16:01.119Z,31.40
2022-12-03T05:18:04.022Z,28.50
2022-12-03T05:20:26.164Z,31.30
2022-12-03T05:22:29.037Z,29.60
2022-12-03T05:24:31.838Z,30.10
2022-12-03T05:26:34.686Z,30.40
2022-12-03T05:28:37.447Z,29.50
2022-12-03T05:30:40.384Z,26.40
2022-12-03T05:32:43.408Z,29.00
2022-12-03T05:34:46.179Z,30.30
2022-12-03T05:36:48.950Z,26.40
2022-12-03T05:38:51.799Z,31.50
2022-12-03T05:40:55.340Z,29.10
2022-12-03T05:42:58.357Z,25.50
2022-12-03T05:45:01.157Z,31.00
2022-12-03T05:47:04.030Z,21.50
2022-12-03T05:49:06.838Z,30.10
2022-12-03T05:51:09.656Z,32.00
2022-12-03T05:53:13.290Z,31.90
2022-12-03T05:55:16.755Z,28.60
2022-12-03T05:57:19.551Z,29.70
2022-12-03T05:59:22.464Z,24.30
2022-12-03T06:01:25.610Z,28.60
2022-12-03T06:03:28.501Z,26.90
2022-12-03T06:05:31.430Z,24.30
2022-12-03T06:07:34.358Z,24.10
2022-12-03T06:09:37.268Z,22.60
2022-12-03T06:11:40.741Z,25.70
2022-12-03T06:13:43.557Z,27.40
2022-12-03T06:15:46.345Z,30.60
2022-12-03T06:17:49.114Z,27.40
2022-12-03T06:19:52.139Z,28.80
2022-12-03T06:21:55.672Z,29.00
2022-12-03T06:23:58.454Z,29.90
2022-12-03T06:26:01.253Z,30.60
2022-12-03T06:28:04.184Z,28.20
2022-12-03T06:30:09.009Z,29.60
2022-12-03T06:32:11.933Z,29.00
2022-12-03T06:34:14.764Z,26.90
2022-12-03T06:36:22.622Z,32.10
2022-12-03T06:38:25.962Z,30.70
2022-12-03T06:40:28.765Z,15.30
2022-12-03T06:42:31.580Z,28.70
2022-12-03T06:44:34.494Z,30.50
2022-12-03T06:46:37.516Z,31.20
2022-12-03T06:48:40.328Z,29.50
2022-12-03T06:50:43.301Z,24.90
2022-12-03T06:52:46.152Z,23.80
2022-12-03T06:54:48.954Z,22.20
2022-12-03T06:56:51.771Z,31.30
2022-12-03T06:58:54.678Z,16.40
2022-12-03T07:00:57.519Z,15.70
2022-12-03T07:03:00.406Z,27.80
2022-12-03T07:05:04.131Z,26.70
2022-12-03T07:07:06.892Z,32.90
2022-12-03T07:09:09.874Z,34.50
2022-12-03T07:11:31.317Z,32.60
2022-12-03T07:13:34.123Z,53.20
2022-12-03T07:15:37.285Z,52.00
2022-12-03T07:17:40.138Z,34.20
2022-12-03T07:19:42.883Z,39.20
2022-12-03T07:21:45.836Z,36.40
2022-12-03T07:23:48.596Z,45.80
2022-12-03T07:25:51.404Z,55.80
2022-12-03T07:27:54.194Z,63.00
2022-12-03T07:29:56.987Z,45.20
2022-12-03T07:31:59.926Z,32.60
2022-12-03T07:34:02.876Z,33.20
2022-12-03T07:36:06.030Z,33.40
2022-12-03T07:38:08.854Z,34.80
2022-12-03T07:40:12.252Z,34.20
2022-12-03T07:42:15.043Z,37.20
2022-12-03T07:44:17.870Z,36.90
2022-12-03T07:46:20.849Z,36.70
2022-12-03T07:48:23.708Z,36.70
2022-12-03T07:50:28.402Z,37.30
2022-12-03T07:52:31.320Z,38.20
2022-12-03T07:54:34.159Z,38.40
2022-12-03T07:56:37.051Z,36.00
2022-12-03T07:58:39.907Z,38.70
2022-12-03T08:00:42.806Z,39.70
2022-12-03T08:02:46.006Z,41.10
2022-12-03T08:04:49.032Z,39.60
2022-12-03T08:06:51.874Z,37.20
2022-12-03T08:08:54.662Z,36.50
2022-12-03T08:10:57.519Z,37.80
2022-12-03T08:13:00.524Z,40.80
2022-12-03T08:15:10.320Z,39.60
2022-12-03T08:17:14.676Z,41.30
2022-12-03T08:21:06.894Z,21.10
2022-12-03T08:24:15.773Z,39.40
2022-12-03T08:27:19.964Z,39.50
2022-12-03T08:30:23.521Z,27.30
2022-12-03T08:33:29.635Z,34.80
2022-12-03T08:36:33.847Z,35.10
2022-12-03T08:39:44.624Z,27.20
2022-12-03T08:42:47.685Z,37.60
2022-12-03T08:45:53.241Z,34.70
2022-12-03T08:52:19.844Z,36.50
2022-12-03T08:55:37.316Z,42.10
2022-12-03T08:58:48.020Z,35.20
2022-12-03T09:01:53.567Z,38.40
2022-12-03T09:04:56.724Z,38.30
2022-12-03T09:07:59.824Z,37.30
2022-12-03T09:11:02.617Z,40.80
2022-12-03T09:14:05.850Z,39.30
2022-12-03T09:17:08.735Z,39.70
2022-12-03T09:20:11.931Z,38.80
2022-12-03T09:23:14.778Z,37.20
2022-12-03T09:26:17.569Z,40.40
2022-12-03T09:29:20.381Z,42.30
2022-12-03T09:32:23.323Z,41.10
2022-12-03T09:35:27.135Z,40.60
2022-12-03T09:38:29.942Z,41.10
2022-12-03T09:41:36.233Z,38.30
2022-12-03T09:44:39.178Z,39.50
2022-12-03T09:47:46.254Z,40.60
2022-12-03T09:50:50.011Z,44.30
2022-12-03T09:53:52.849Z,51.50
2022-12-03T09:56:57.475Z,46.60
2022-12-03T10:00:02.941Z,45.80
2022-12-03T10:03:07.781Z,45.10
2022-12-03T10:06:16.528Z,49.40
2022-12-03T10:09:25.181Z,45.00
2022-12-03T10:12:27.944Z,50.00
2022-12-03T10:15:31.799Z,47.70
2022-12-03T10:18:41.283Z,47.60
2022-12-03T10:21:46.020Z,47.60
2022-12-03T10:25:14.921Z,46.90
2022-12-03T10:28:31.259Z,42.80
2022-12-03T10:31:37.057Z,48.20
2022-12-03T10:34:41.620Z,50.10
2022-12-03T10:37:59.597Z,47.40
2022-12-03T10:41:21.426Z,44.90
2022-12-03T10:44:27.629Z,43.60
2022-12-03T10:47:30.757Z,37.60
2022-12-03T10:50:34.917Z,45.30
2022-12-03T10:53:39.890Z,43.50
2022-12-03T10:56:43.805Z,46.80
2022-12-03T10:59:46.660Z,44.00
2022-12-03T11:02:56.471Z,40.90
2022-12-03T11:09:48.524Z,45.50
2022-12-03T11:13:29.348Z,43.00
2022-12-03T11:16:41.473Z,39.80
2022-12-03T11:19:47.793Z,46.40
2022-12-03T11:26:38.234Z,43.10
2022-12-03T11:29:50.262Z,39.90
2022-12-03T11:36:36.414Z,43.50
2022-12-03T11:39:50.119Z,45.50
2022-12-03T11:42:53.170Z,41.50
2022-12-03T11:45:59.675Z,43.30
2022-12-03T11:49:25.148Z,42.60
2022-12-03T11:52:32.013Z,22.90
2022-12-03T11:55:39.025Z,41.40
2022-12-03T11:58:47.312Z,42.10
2022-12-03T12:01:50.125Z,44.60
2022-12-03T12:04:52.921Z,41.70
2022-12-03T12:07:57.750Z,42.10
2022-12-03T12:11:01.063Z,40.90
2022-12-03T12:14:13.643Z,42.90
2022-12-03T12:17:36.997Z,43.10
2022-12-03T12:20:39.928Z,43.90
2022-12-03T12:23:42.718Z,47.30
2022-12-03T12:26:52.208Z,44.30
2022-12-03T12:30:00.047Z,42.60
2022-12-03T12:33:36.071Z,45.90
2022-12-03T12:36:39.271Z,46.80
2022-12-03T12:39:42.211Z,41.70
2022-12-03T12:42:59.300Z,49.30
2022-12-03T12:46:45.623Z,48.90
2022-12-03T12:49:34.130Z,41.60
2022-12-03T12:52:49.698Z,45.50
2022-12-03T12:55:57.182Z,49.80
2022-12-03T12:59:11.509Z,47.70
2022-12-03T13:03:04.087Z,47.00
2022-12-03T13:06:15.042Z,43.20
2022-12-03T13:09:23.778Z,45.80
2022-12-03T13:12:27.064Z,51.20
2022-12-03T13:15:42.669Z,50.40
2022-12-03T13:18:53.438Z,44.90
2022-12-03T13:22:14.051Z,48.00
2022-12-03T13:26:00.210Z,42.50
2022-12-03T13:29:06.835Z,46.10
2022-12-03T13:32:15.173Z,43.40
2022-12-03T13:35:27.547Z,47.70
2022-12-03T13:38:30.462Z,47.30
2022-12-03T13:41:51.870Z,50.30
2022-12-03T13:44:54.812Z,47.10
2022-12-03T13:48:00.293Z,45.20
2022-12-03T13:51:26.781Z,48.00
2022-12-03T13:54:39.381Z,48.20
2022-12-03T14:00:45.312Z,43.60
2022-12-03T14:03:48.177Z,45.60
2022-12-03T14:06:51.020Z,22.00
2022-12-03T14:09:54.065Z,53.80
2022-12-03T14:12:57.460Z,50.20
2022-12-03T14:16:02.503Z,48.10
2022-12-03T14:19:06.365Z,50.50
2022-12-03T14:22:10.088Z,47.40
2022-12-03T14:25:12.887Z,46.90
2022-12-03T14:28:15.739Z,50.60
2022-12-03T14:31:18.563Z,50.00
2022-12-03T14:34:21.474Z,49.60
2022-12-03T14:37:24.467Z,51.00
2022-12-03T14:40:27.657Z,48.40
2022-12-03T14:43:30.447Z,60.80
2022-12-03T14:46:33.254Z,56.80
2022-12-03T14:49:36.478Z,54.80
2022-12-03T14:52:39.277Z,55.40
2022-12-03T14:55:44.344Z,59.70
2022-12-03T14:58:47.361Z,55.80
2022-12-03T15:01:50.584Z,52.70
2022-12-03T15:04:53.411Z,54.00
2022-12-03T15:07:56.378Z,51.90
2022-12-03T15:11:00.567Z,56.40
2022-12-03T15:14:03.491Z,53.50
2022-12-03T15:17:06.386Z,52.10
2022-12-03T15:20:10.760Z,56.70
2022-12-03T15:23:14.683Z,47.30
2022-12-03T15:26:17.721Z,50.80
2022-12-03T15:29:20.906Z,55.00
2022-12-03T15:35:46.217Z,52.70
2022-12-03T15:38:49.053Z,59.50
2022-12-03T15:41:51.864Z,18.80
2022-12-03T15:44:54.573Z,37.00
2022-12-03T15:47:57.398Z,34.30
2022-12-03T15:51:00.193Z,48.90
2022-12-03T15:54:03.058Z,20.60
2022-12-03T15:57:05.799Z,34.90
2022-12-03T16:00:10.924Z,43.00
2022-12-03T16:03:13.815Z,59.50
2022-12-03T16:06:33.579Z,56.80
2022-12-03T16:09:36.559Z,56.20
2022-12-03T16:12:39.637Z,52.40
2022-12-03T16:15:42.558Z,52.20
2022-12-03T16:18:45.393Z,61.10
2022-12-03T16:21:48.258Z,56.30
2022-12-03T16:24:51.121Z,51.20
2022-12-03T16:27:54.008Z,52.00
2022-12-03T16:30:56.900Z,53.60
2022-12-03T16:33:59.738Z,59.00
2022-12-03T16:37:02.584Z,58.10
2022-12-03T16:40:06.404Z,58.40
2022-12-03T16:43:10.780Z,63.70
2022-12-03T16:46:19.568Z,54.50
2022-12-03T16:49:22.424Z,70.40
2022-12-03T16:52:25.353Z,62.20
2022-12-03T16:55:28.273Z,69.90
2022-12-03T16:58:31.136Z,71.00
2022-12-03T17:01:34.055Z,60.50
2022-12-03T17:04:37.036Z,55.30
2022-12-03T17:07:39.880Z,60.30
2022-12-03T17:10:43.740Z,50.50
2022-12-03T17:13:46.792Z,48.80
2022-12-03T17:16:50.506Z,52.40
2022-12-03T17:19:53.824Z,54.80
2022-12-03T17:22:57.887Z,50.60
2022-12-03T17:26:00.610Z,49.70
2022-12-03T17:29:03.482Z,47.10
2022-12-03T17:32:06.381Z,57.40
2022-12-03T17:35:10.651Z,50.90
2022-12-03T17:38:13.454Z,50.20
2022-12-03T17:41:16.310Z,54.50
2022-12-03T17:44:21.131Z,52.30
2022-12-03T17:47:24.548Z,49.80
2022-12-03T17:50:27.380Z,49.90
2022-12-03T17:53:30.253Z,59.80
2022-12-03T17:56:33.195Z,55.90
2022-12-03T17:59:36.091Z,54.10
2022-12-03T18:02:39.675Z,56.70
2022-12-03T18:05:42.562Z,52.00
2022-12-03T18:08:45.374Z,53.30
2022-12-03T18:11:48.212Z,60.20
2022-12-03T18:14:51.095Z,60.30
2022-12-03T18:17:53.907Z,58.10
2022-12-03T18:21:01.477Z,63.60
2022-12-03T18:24:04.789Z,47.30
2022-12-03T18:27:07.898Z,52.30
2022-12-03T18:30:11.160Z,49.30
2022-12-03T18:33:15.691Z,57.10
2022-12-03T18:36:24.499Z,57.10
2022-12-03T18:39:34.384Z,53.60
2022-12-03T18:42:37.176Z,51.90
2022-12-03T18:45:40.717Z,60.10
2022-12-03T18:48:45.188Z,53.10
2022-12-03T18:51:48.598Z,50.40
2022-12-03T18:54:51.762Z,50.50
2022-12-03T18:57:54.605Z,60.30
2022-12-03T19:00:57.380Z,49.00
2022-12-03T19:04:00.241Z,58.60
2022-12-03T19:07:03.805Z,50.10
2022-12-03T19:10:07.617Z,54.80
2022-12-03T19:13:10.855Z,56.30
2022-12-03T19:16:15.270Z,53.00
2022-12-03T19:19:18.848Z,56.30
2022-12-03T19:22:21.707Z,51.00
2022-12-03T19:25:24.545Z,73.20
2022-12-03T19:28:28.684Z,59.10
2022-12-03T19:31:33.573Z,65.80
2022-12-03T19:34:36.695Z,58.10
2022-12-03T19:37:39.577Z,59.80
2022-12-03T19:40:42.326Z,54.40
2022-12-03T19:43:53.444Z,47.80
2022-12-03T19:46:57.364Z,51.50
2022-12-03T19:50:00.227Z,56.10
2022-12-03T19:53:03.045Z,55.50
2022-12-03T19:56:09.304Z,49.80
2022-12-03T19:59:13.505Z,52.80
2022-12-03T20:02:17.941Z,53.60
2022-12-03T20:05:20.916Z,49.80
2022-12-03T20:08:24.285Z,23.10
2022-12-03T20:11:30.251Z,48.70
2022-12-03T20:14:32.994Z,56.50
2022-12-03T20:17:35.868Z,48.30
2022-12-03T20:20:38.678Z,48.20
2022-12-03T20:23:41.582Z,59.40
2022-12-03T20:26:44.883Z,57.80
2022-12-03T20:29:47.841Z,50.30
2022-12-03T20:32:50.603Z,53.30
2022-12-03T20:35:54.880Z,54.00
2022-12-03T20:39:00.681Z,47.00
2022-12-03T20:42:03.651Z,42.80
2022-12-03T20:45:07.152Z,50.30
2022-12-03T20:48:10.046Z,54.60
2022-12-03T20:51:16.039Z,56.40
2022-12-03T20:54:18.935Z,51.20
2022-12-03T20:57:21.718Z,54.20
2022-12-03T21:00:25.031Z,51.60
2022-12-03T21:03:27.959Z,57.80
2022-12-03T21:06:31.900Z,43.40
2022-12-03T21:09:34.733Z,53.90
2022-12-03T21:12:37.625Z,27.80
2022-12-03T21:15:41.581Z,53.70
2022-12-03T21:18:45.884Z,41.80
2022-12-03T21:21:48.948Z,53.50
2022-12-03T21:24:51.760Z,54.70
2022-12-03T21:27:55.204Z,52.80
2022-12-03T21:31:03.762Z,54.70
2022-12-03T21:34:08.642Z,57.20
2022-12-03T21:37:11.512Z,57.10
2022-12-03T21:40:14.394Z,52.50
2022-12-03T21:43:17.233Z,51.80
2022-12-03T21:47:10.664Z,52.70
2022-12-03T21:49:43.327Z,50.20
2022-12-03T21:52:46.264Z,57.10
2022-12-03T21:55:49.041Z,52.80
2022-12-03T21:58:51.861Z,50.00
2022-12-03T22:01:54.700Z,54.50
2022-12-03T22:04:57.613Z,44.10
2022-12-03T22:08:00.473Z,53.70
2022-12-03T22:11:09.176Z,53.80
2022-12-03T22:14:12.393Z,49.50
2022-12-03T22:17:15.342Z,50.90
2022-12-03T22:20:18.143Z,48.40
2022-12-03T22:23:20.891Z,47.80
2022-12-03T22:26:23.695Z,45.60
2022-12-03T22:29:26.472Z,42.30
2022-12-03T22:32:29.265Z,52.80
2022-12-03T22:35:32.048Z,42.00
2022-12-03T22:38:35.223Z,45.00
2022-12-03T22:41:38.045Z,46.00
2022-12-03T22:44:40.824Z,37.00
2022-12-03T22:47:43.651Z,43.60
2022-12-03T22:50:48.891Z,14.50
2022-12-03T22:53:56.658Z,45.00
2022-12-03T22:56:59.615Z,15.60
2022-12-03T23:00:02.546Z,39.40
2022-12-03T23:03:07.222Z,45.00
2022-12-03T23:06:11.392Z,48.00
2022-12-03T23:09:14.189Z,46.30
2022-12-03T23:12:17.039Z,51.30
2022-12-03T23:15:19.853Z,51.10
2022-12-03T23:18:22.751Z,42.70
2022-12-03T23:21:30.435Z,43.30
2022-12-03T23:24:33.547Z,35.90
2022-12-03T23:27:36.326Z,45.70
2022-12-03T23:30:39.696Z,39.30
2022-12-03T23:33:42.473Z,44.60
2022-12-03T23:36:45.519Z,46.20
2022-12-03T23:39:48.461Z,50.60
2022-12-03T23:42:51.257Z,42.10
2022-12-03T23:45:54.077Z,47.80
2022-12-03T23:48:59.120Z,47.80
2022-12-03T23:52:01.891Z,46.10
2022-12-03T23:55:05.879Z,50.90
2022-12-03T23:58:08.869Z,50.60
